createdAt,value
2023-05-05T00:01:03.078Z,45.88
2023-05-05T00:03:31.097Z,45.93
2023-05-05T00:05:59.023Z,46.00
2023-05-05T00:08:27.917Z,46.11
2023-05-05T00:10:56.588Z,46.27
2023-05-05T00:13:25.151Z,46.30
2023-05-05T00:15:53.868Z,46.52
2023-05-05T00:18:21.917Z,46.47
2023-05-05T00:20:50.036Z,46.67
2023-05-05T00:23:37.938Z,46.67
2023-05-05T00:26:06.521Z,46.88
2023-05-05T00:28:35.092Z,46.83
2023-05-05T00:31:03.055Z,46.83
2023-05-05T00:33:31.225Z,46.85
2023-05-05T00:35:59.141Z,47.01
2023-05-05T00:38:27.480Z,46.89
2023-05-05T00:40:55.321Z,47.03
2023-05-05T00:43:23.432Z,46.94
2023-05-05T00:46:02.041Z,46.88
2023-05-05T00:48:30.741Z,46.96
2023-05-05T00:50:58.894Z,47.12
2023-05-05T00:53:27.524Z,46.99
2023-05-05T00:55:55.371Z,47.00
2023-05-05T00:58:23.418Z,47.02
2023-05-05T01:00:51.532Z,47.20
2023-05-05T01:03:19.742Z,47.13
2023-05-05T01:06:01.002Z,47.29
2023-05-05T01:08:50.732Z,47.29
2023-05-05T01:11:29.991Z,47.28
2023-05-05T01:14:17.786Z,47.47
2023-05-05T01:16:50.624Z,47.50
2023-05-05T01:19:43.566Z,47.46
2023-05-05T01:22:15.127Z,47.41
2023-05-05T01:25:15.571Z,47.56
2023-05-05T01:28:02.140Z,47.45
2023-05-05T01:30:48.773Z,47.43
2023-05-05T01:33:24.612Z,47.56
2023-05-05T01:36:02.871Z,47.51
2023-05-05T01:38:40.652Z,47.50
2023-05-05T01:41:16.613Z,47.60
2023-05-05T01:43:48.631Z,47.64
2023-05-05T01:46:19.413Z,47.69
2023-05-05T01:48:49.061Z,47.75
2023-05-05T01:51:19.388Z,47.79
2023-05-05T01:53:48.123Z,47.80
2023-05-05T01:56:17.175Z,47.78
2023-05-05T01:58:46.748Z,47.78
2023-05-05T02:01:16.676Z,47.86
2023-05-05T02:03:47.465Z,48.01
2023-05-05T02:06:18.220Z,48.06
2023-05-05T02:08:47.328Z,48.00
2023-05-05T02:11:17.548Z,48.07
2023-05-05T02:13:48.645Z,48.04
2023-05-05T02:16:18.788Z,47.83
2023-05-05T02:18:48.105Z,47.77
2023-05-05T02:21:18.222Z,47.63
2023-05-05T02:23:48.281Z,47.67
2023-05-05T02:26:19.541Z,47.79
2023-05-05T02:29:04.399Z,47.74
2023-05-05T02:31:38.310Z,47.60
2023-05-05T02:34:08.206Z,47.55
2023-05-05T02:36:39.355Z,47.68
2023-05-05T02:39:25.473Z,47.73
2023-05-05T02:41:55.476Z,47.64
2023-05-05T02:44:45.979Z,47.61
2023-05-05T02:47:14.797Z,47.64
2023-05-05T02:49:43.184Z,47.89
2023-05-05T02:52:11.366Z,48.00
2023-05-05T02:54:39.405Z,48.15
2023-05-05T02:57:19.991Z,48.37
2023-05-05T03:00:10.174Z,48.38
2023-05-05T03:02:44.902Z,48.32
2023-05-05T03:05:21.360Z,48.42
2023-05-05T03:08:03.458Z,48.39
2023-05-05T03:10:40.315Z,48.45
2023-05-05T03:13:10.278Z,48.53
2023-05-05T03:15:47.371Z,48.48
2023-05-05T03:18:18.363Z,48.61
2023-05-05T03:20:50.298Z,48.51
2023-05-05T03:23:21.109Z,48.59
2023-05-05T03:25:50.393Z,48.55
2023-05-05T03:28:38.545Z,48.70
2023-05-05T03:31:15.860Z,48.68
2023-05-05T03:33:43.926Z,48.53
2023-05-05T03:36:11.987Z,48.61
2023-05-05T03:38:40.251Z,48.59
2023-05-05T03:41:08.631Z,48.66
2023-05-05T03:43:36.653Z,48.48
2023-05-05T03:46:05.535Z,48.44
2023-05-05T03:48:34.273Z,48.27
2023-05-05T03:51:02.112Z,48.22
2023-05-05T03:53:30.790Z,48.23
2023-05-05T03:55:58.688Z,48.28
2023-05-05T03:58:26.926Z,48.34
2023-05-05T04:00:54.882Z,48.50
2023-05-05T04:03:23.325Z,48.28
2023-05-05T04:05:51.670Z,48.17
2023-05-05T04:08:20.079Z,48.03
2023-05-05T04:10:47.979Z,47.96
2023-05-05T04:13:16.568Z,47.86
2023-05-05T04:15:47.849Z,47.96
2023-05-05T04:18:16.062Z,47.86
2023-05-05T04:20:44.053Z,47.95
2023-05-05T04:23:12.744Z,47.76
2023-05-05T04:25:40.766Z,47.70
2023-05-05T04:28:08.790Z,47.56
2023-05-05T04:30:37.530Z,47.53
2023-05-05T04:33:05.576Z,47.32
2023-05-05T04:35:33.536Z,47.25
2023-05-05T04:38:02.014Z,47.21
2023-05-05T04:40:30.380Z,47.29
2023-05-05T04:42:58.379Z,47.20
2023-05-05T04:45:26.442Z,47.26
2023-05-05T04:47:54.430Z,47.04
2023-05-05T04:50:22.339Z,46.99
2023-05-05T04:52:52.699Z,46.77
2023-05-05T04:55:20.947Z,46.70
2023-05-05T04:57:48.841Z,46.90
2023-05-05T05:00:17.236Z,46.93
2023-05-05T05:02:45.169Z,46.99
2023-05-05T05:05:13.163Z,46.99
2023-05-05T05:07:41.163Z,46.90
2023-05-05T05:10:09.903Z,46.62
2023-05-05T05:12:38.104Z,46.43
2023-05-05T05:15:06.774Z,46.20
2023-05-05T05:17:34.699Z,46.15
2023-05-05T05:20:05.011Z,46.38
2023-05-05T05:22:33.303Z,46.39
2023-05-05T05:25:02.059Z,46.60
2023-05-05T05:27:30.550Z,46.81
2023-05-05T05:29:58.617Z,46.62
2023-05-05T05:32:27.039Z,46.55
2023-05-05T05:34:55.337Z,46.43
2023-05-05T05:37:23.136Z,46.36
2023-05-05T05:39:52.191Z,46.07
2023-05-05T05:42:21.014Z,45.92
2023-05-05T05:44:49.245Z,45.74
2023-05-05T05:47:17.177Z,45.65
2023-05-05T05:49:45.983Z,45.25
2023-05-05T05:52:13.910Z,44.93
2023-05-05T05:54:42.067Z,44.46
2023-05-05T05:57:10.326Z,44.20
2023-05-05T05:59:38.511Z,44.15
2023-05-05T06:02:07.300Z,43.63
2023-05-05T06:04:35.500Z,43.21
2023-05-05T06:07:03.693Z,43.00
2023-05-05T06:09:32.031Z,42.74
2023-05-05T06:12:01.926Z,42.34
2023-05-05T06:14:30.226Z,42.04
2023-05-05T06:16:58.129Z,41.80
2023-05-05T06:19:26.457Z,41.82
2023-05-05T06:21:54.866Z,41.65
2023-05-05T06:24:23.311Z,41.38
2023-05-05T06:26:51.345Z,40.89
2023-05-05T06:29:19.269Z,40.66
2023-05-05T06:31:47.326Z,40.45
2023-05-05T06:34:15.488Z,39.94
2023-05-05T06:36:43.431Z,40.27
2023-05-05T06:39:11.780Z,39.90
2023-05-05T06:41:40.165Z,39.18
2023-05-05T06:44:08.134Z,39.06
2023-05-05T06:46:36.452Z,38.88
2023-05-05T06:49:04.619Z,37.94
2023-05-05T06:51:32.671Z,37.99
2023-05-05T06:54:00.500Z,37.59
2023-05-05T06:56:28.420Z,37.20
2023-05-05T06:58:56.406Z,37.39
2023-05-05T07:01:24.483Z,37.32
2023-05-05T07:03:52.560Z,36.13
2023-05-05T07:06:20.667Z,35.67
2023-05-05T07:08:48.385Z,35.48
2023-05-05T07:11:16.369Z,34.61
2023-05-05T07:13:44.386Z,33.71
2023-05-05T07:16:12.230Z,33.96
2023-05-05T07:18:40.108Z,33.50
2023-05-05T07:21:44.371Z,32.76
2023-05-05T07:24:12.328Z,32.43
2023-05-05T07:26:40.439Z,32.55
2023-05-05T07:29:08.341Z,31.54
2023-05-05T07:31:36.357Z,31.56
2023-05-05T07:34:04.261Z,31.37
2023-05-05T07:36:33.011Z,31.81
2023-05-05T07:39:01.054Z,32.07
2023-05-05T07:41:29.095Z,31.66
2023-05-05T07:43:57.229Z,31.55
2023-05-05T07:46:25.171Z,30.90
2023-05-05T07:48:53.130Z,30.52
2023-05-05T07:51:21.631Z,30.40
2023-05-05T07:53:49.748Z,30.20
2023-05-05T07:56:18.415Z,29.55
2023-05-05T07:58:47.306Z,29.65
2023-05-05T08:01:15.193Z,29.13
2023-05-05T08:03:43.363Z,28.70
2023-05-05T08:06:11.899Z,28.82
2023-05-05T08:08:39.847Z,28.12
2023-05-05T08:11:08.158Z,28.27
2023-05-05T08:13:36.195Z,28.91
2023-05-05T08:16:04.371Z,28.93
2023-05-05T08:18:33.107Z,29.14
2023-05-05T08:21:00.941Z,28.99
2023-05-05T08:23:28.973Z,28.38
2023-05-05T08:25:57.082Z,28.22
2023-05-05T08:28:25.016Z,28.14
2023-05-05T08:30:53.079Z,28.24
2023-05-05T08:33:21.129Z,28.01
2023-05-05T08:35:49.549Z,26.98
2023-05-05T08:38:19.138Z,26.99
2023-05-05T08:40:47.222Z,27.13
2023-05-05T08:43:15.986Z,27.15
2023-05-05T08:45:45.149Z,26.83
2023-05-05T08:48:13.347Z,26.42
2023-05-05T08:50:48.323Z,25.60
2023-05-05T08:53:18.208Z,26.02
2023-05-05T08:55:51.638Z,26.78
2023-05-05T08:58:20.296Z,26.20
2023-05-05T09:00:48.637Z,25.78
2023-05-05T09:03:17.313Z,25.57
2023-05-05T09:05:45.848Z,25.22
2023-05-05T09:08:14.291Z,25.60
2023-05-05T09:10:42.903Z,25.43
2023-05-05T09:13:11.199Z,25.66
2023-05-05T09:15:40.180Z,26.00
2023-05-05T09:18:14.561Z,26.09
2023-05-05T09:20:42.613Z,26.07
2023-05-05T09:23:11.578Z,26.11
2023-05-05T09:25:41.341Z,25.91
2023-05-05T09:28:17.852Z,25.43
2023-05-05T09:30:47.485Z,25.65
2023-05-05T09:33:30.836Z,25.71
2023-05-05T09:35:58.756Z,25.30
2023-05-05T09:38:26.800Z,23.59
2023-05-05T09:40:54.868Z,23.12
2023-05-05T09:43:24.054Z,22.53
2023-05-05T09:46:08.498Z,22.78
2023-05-05T09:48:37.428Z,22.54
2023-05-05T09:51:06.065Z,22.72
2023-05-05T09:53:43.115Z,23.04
2023-05-05T09:56:11.177Z,22.50
2023-05-05T09:58:39.145Z,22.80
2023-05-05T10:01:22.868Z,23.30
2023-05-05T10:03:52.473Z,23.55
2023-05-05T10:06:20.567Z,23.52
2023-05-05T10:09:01.715Z,23.27
2023-05-05T10:11:30.379Z,22.66
2023-05-05T10:13:58.505Z,22.18
2023-05-05T10:16:30.127Z,21.20
2023-05-05T10:19:01.684Z,21.46
2023-05-05T10:21:34.406Z,21.27
2023-05-05T10:24:18.501Z,22.12
2023-05-05T10:26:47.291Z,22.29
2023-05-05T10:29:39.031Z,22.68
2023-05-05T10:32:53.938Z,22.35
2023-05-05T10:35:22.167Z,21.86
2023-05-05T10:37:50.830Z,21.77
2023-05-05T10:40:34.040Z,22.06
2023-05-05T10:43:02.635Z,21.96
2023-05-05T10:45:31.098Z,22.69
2023-05-05T10:48:03.032Z,22.64
2023-05-05T10:50:47.796Z,21.96
2023-05-05T10:53:42.866Z,21.20
2023-05-05T10:56:31.529Z,21.64
2023-05-05T10:59:00.644Z,21.92
2023-05-05T11:01:34.166Z,22.28
2023-05-05T11:04:22.098Z,22.59
2023-05-05T11:07:27.491Z,22.73
2023-05-05T11:10:03.077Z,22.02
2023-05-05T11:12:33.329Z,22.17
2023-05-05T11:15:26.273Z,21.55
2023-05-05T11:17:58.125Z,20.98
2023-05-05T11:20:35.109Z,21.13
2023-05-05T11:23:03.188Z,21.13
2023-05-05T11:25:37.925Z,21.58
2023-05-05T11:28:13.852Z,21.60
2023-05-05T11:31:05.012Z,21.81
2023-05-05T11:33:39.998Z,22.17
2023-05-05T11:36:13.101Z,22.29
2023-05-05T11:38:56.490Z,21.94
2023-05-05T11:41:33.634Z,21.63
2023-05-05T11:44:19.608Z,21.63
2023-05-05T11:46:54.361Z,20.37
2023-05-05T11:49:31.647Z,20.10
2023-05-05T11:52:00.681Z,20.14
2023-05-05T11:54:29.737Z,20.52
2023-05-05T11:57:00.610Z,20.85
2023-05-05T11:59:28.775Z,20.79
2023-05-05T12:01:56.879Z,20.41
2023-05-05T12:04:24.946Z,20.29
2023-05-05T12:06:53.020Z,20.63
2023-05-05T12:09:22.769Z,20.59
2023-05-05T12:11:52.953Z,20.72
2023-05-05T12:14:21.478Z,20.78
2023-05-05T12:16:56.599Z,21.08
2023-05-05T12:19:29.877Z,20.95
2023-05-05T12:21:57.813Z,21.11
2023-05-05T12:24:25.825Z,20.69
2023-05-05T12:26:53.906Z,21.49
2023-05-05T12:29:26.152Z,21.47
2023-05-05T12:31:54.808Z,21.45
2023-05-05T12:34:23.950Z,21.49
2023-05-05T12:36:52.597Z,22.00
2023-05-05T12:39:37.820Z,22.46
2023-05-05T12:42:06.499Z,23.12
2023-05-05T12:44:36.356Z,23.32
2023-05-05T12:47:05.014Z,23.31
2023-05-05T12:49:48.482Z,23.36
2023-05-05T12:52:17.378Z,23.96
2023-05-05T12:54:59.228Z,24.23
2023-05-05T12:57:27.285Z,23.77
2023-05-05T13:00:15.575Z,23.42
2023-05-05T13:02:43.822Z,23.13
2023-05-05T13:05:12.119Z,23.16
2023-05-05T13:07:52.442Z,23.21
2023-05-05T13:10:20.689Z,23.08
2023-05-05T13:12:48.655Z,22.87
2023-05-05T13:15:16.635Z,22.67
2023-05-05T13:17:44.506Z,22.53
2023-05-05T13:20:12.510Z,22.73
2023-05-05T13:22:40.584Z,22.92
2023-05-05T13:25:08.961Z,23.17
2023-05-05T13:27:37.969Z,23.15
2023-05-05T13:30:06.665Z,22.38
2023-05-05T13:32:34.577Z,22.36
2023-05-05T13:35:03.732Z,22.26
2023-05-05T13:37:31.619Z,22.51
2023-05-05T13:40:00.470Z,22.86
2023-05-05T13:42:28.491Z,23.05
2023-05-05T13:44:56.531Z,23.10
2023-05-05T13:47:24.552Z,22.91
2023-05-05T13:49:52.699Z,22.84
2023-05-05T13:52:20.681Z,23.12
2023-05-05T13:54:49.290Z,23.31
2023-05-05T13:57:17.496Z,23.24
2023-05-05T13:59:45.748Z,23.00
2023-05-05T14:02:13.690Z,23.24
2023-05-05T14:04:41.625Z,23.34
2023-05-05T14:07:09.529Z,23.13
2023-05-05T14:09:37.436Z,22.87
2023-05-05T14:12:06.257Z,23.11
2023-05-05T14:14:34.637Z,23.38
2023-05-05T14:17:02.674Z,23.65
2023-05-05T14:19:31.003Z,23.59
2023-05-05T14:21:59.018Z,23.18
2023-05-05T14:24:27.390Z,23.34
2023-05-05T14:26:55.274Z,23.67
2023-05-05T14:29:23.436Z,23.88
2023-05-05T14:31:51.590Z,23.91
2023-05-05T14:34:19.625Z,24.11
2023-05-05T14:36:48.065Z,24.20
2023-05-05T14:39:16.085Z,24.44
2023-05-05T14:41:44.482Z,24.50
2023-05-05T14:44:12.551Z,24.46
2023-05-05T14:46:40.856Z,24.52
2023-05-05T14:49:08.823Z,24.52
2023-05-05T14:51:36.678Z,24.51
2023-05-05T14:54:07.437Z,24.40
2023-05-05T14:56:39.768Z,24.47
2023-05-05T14:59:08.086Z,24.52
2023-05-05T15:01:36.540Z,24.77
2023-05-05T15:04:04.933Z,24.77
2023-05-05T15:06:32.997Z,24.75
2023-05-05T15:09:01.052Z,24.79
2023-05-05T15:11:29.520Z,24.71
2023-05-05T15:13:57.400Z,24.77
2023-05-05T15:16:25.418Z,24.46
2023-05-05T15:18:53.392Z,24.72
2023-05-05T15:21:21.461Z,24.72
2023-05-05T15:23:49.346Z,24.89
2023-05-05T15:26:17.365Z,24.78
2023-05-05T15:28:45.267Z,24.79
2023-05-05T15:31:13.206Z,24.76
2023-05-05T15:33:41.304Z,25.12
2023-05-05T15:36:09.920Z,25.34
2023-05-05T15:38:44.928Z,25.44
2023-05-05T15:41:12.706Z,25.69
2023-05-05T15:43:40.739Z,25.85
2023-05-05T15:46:08.583Z,25.90
2023-05-05T15:48:36.706Z,26.04
2023-05-05T15:51:04.759Z,26.18
2023-05-05T15:54:14.348Z,26.41
2023-05-05T15:56:42.334Z,26.66
2023-05-05T15:59:10.377Z,26.72
2023-05-05T16:01:38.591Z,26.69
2023-05-05T16:04:06.837Z,27.06
2023-05-05T16:06:34.769Z,27.08
2023-05-05T16:09:02.737Z,27.30
2023-05-05T16:11:31.440Z,27.40
2023-05-05T16:14:59.817Z,27.59
2023-05-05T16:17:47.665Z,27.57
2023-05-05T16:20:15.932Z,27.51
2023-05-05T16:23:03.818Z,28.30
2023-05-05T16:25:31.742Z,28.08
2023-05-05T16:28:01.666Z,27.98
2023-05-05T16:30:29.853Z,27.96
2023-05-05T16:33:58.518Z,28.23
2023-05-05T16:37:26.955Z,28.18
2023-05-05T16:39:55.083Z,28.03
2023-05-05T16:42:23.357Z,27.99
2023-05-05T16:44:51.214Z,28.02
2023-05-05T16:47:19.470Z,27.84
2023-05-05T16:49:47.612Z,28.14
2023-05-05T16:52:15.546Z,28.05
2023-05-05T16:54:43.788Z,28.17
2023-05-05T16:57:12.120Z,28.09
2023-05-05T16:59:41.903Z,28.22
2023-05-05T17:02:10.012Z,28.55
2023-05-05T17:05:38.496Z,28.58
2023-05-05T17:08:07.864Z,28.76
2023-05-05T17:10:35.923Z,28.74
2023-05-05T17:14:04.662Z,28.96
2023-05-05T17:17:13.754Z,29.20
2023-05-05T17:19:42.888Z,29.31
2023-05-05T17:22:10.957Z,29.40
2023-05-05T17:24:39.253Z,29.71
2023-05-05T17:27:07.461Z,29.65
2023-05-05T17:29:40.943Z,29.82
2023-05-05T17:32:09.363Z,29.85
2023-05-05T17:34:37.714Z,29.93
2023-05-05T17:37:06.033Z,29.99
2023-05-05T17:39:34.024Z,30.13
2023-05-05T17:42:02.067Z,30.12
2023-05-05T17:45:10.291Z,30.14
2023-05-05T17:47:55.999Z,30.44
2023-05-05T17:50:24.559Z,30.61
2023-05-05T17:52:52.520Z,30.69
2023-05-05T17:55:20.801Z,30.71
2023-05-05T17:57:48.854Z,30.94
2023-05-05T18:00:18.897Z,30.92
2023-05-05T18:02:51.179Z,31.20
2023-05-05T18:06:19.883Z,31.40
2023-05-05T18:08:48.652Z,31.47
2023-05-05T18:11:16.757Z,31.74
2023-05-05T18:13:44.871Z,31.85
2023-05-05T18:16:12.898Z,32.11
2023-05-05T18:18:41.525Z,32.37
2023-05-05T18:21:12.798Z,32.46
2023-05-05T18:23:40.798Z,32.62
2023-05-05T18:26:09.126Z,32.55
2023-05-05T18:28:37.610Z,32.82
2023-05-05T18:31:06.322Z,32.91
2023-05-05T18:33:34.501Z,33.16
2023-05-05T18:36:43.254Z,33.48
2023-05-05T18:39:11.594Z,33.41
2023-05-05T18:41:40.000Z,33.42
2023-05-05T18:44:08.206Z,33.62
2023-05-05T18:46:36.296Z,33.70
2023-05-05T18:49:18.560Z,33.72
2023-05-05T18:51:47.071Z,33.81
2023-05-05T18:54:15.322Z,33.85
2023-05-05T18:56:43.857Z,34.02
2023-05-05T18:59:12.238Z,34.10
2023-05-05T19:01:41.060Z,33.99
2023-05-05T19:04:22.538Z,34.22
2023-05-05T19:06:55.191Z,34.40
2023-05-05T19:09:23.407Z,34.49
2023-05-05T19:11:51.658Z,34.52
2023-05-05T19:14:45.184Z,34.54
2023-05-05T19:17:13.396Z,34.57
2023-05-05T19:19:41.620Z,34.66
2023-05-05T19:22:09.859Z,34.66
2023-05-05T19:24:37.964Z,34.68
2023-05-05T19:27:08.774Z,34.69
2023-05-05T19:29:38.264Z,34.69
2023-05-05T19:32:16.718Z,34.96
2023-05-05T19:34:45.242Z,34.76
2023-05-05T19:37:15.567Z,34.83
2023-05-05T19:39:45.827Z,34.74
2023-05-05T19:42:14.209Z,34.88
2023-05-05T19:44:42.592Z,34.83
2023-05-05T19:47:11.290Z,34.87
2023-05-05T19:49:39.550Z,34.78
2023-05-05T19:52:08.043Z,34.71
2023-05-05T19:54:36.289Z,34.71
2023-05-05T19:57:05.303Z,34.64
2023-05-05T19:59:34.105Z,34.66
2023-05-05T20:02:02.261Z,34.63
2023-05-05T20:04:30.472Z,34.67
2023-05-05T20:06:59.732Z,34.81
2023-05-05T20:09:28.255Z,34.82
2023-05-05T20:11:59.178Z,34.88
2023-05-05T20:14:27.456Z,34.98
2023-05-05T20:16:55.925Z,34.96
2023-05-05T20:19:24.286Z,35.16
2023-05-05T20:21:52.576Z,35.18
2023-05-05T20:24:20.745Z,35.34
2023-05-05T20:26:49.477Z,35.40
2023-05-05T20:29:46.807Z,35.42
2023-05-05T20:32:15.822Z,35.50
2023-05-05T20:34:43.962Z,35.60
2023-05-05T20:37:13.793Z,35.65
2023-05-05T20:39:43.898Z,35.56
2023-05-05T20:42:12.089Z,35.62
2023-05-05T20:44:40.228Z,35.55
2023-05-05T20:47:08.732Z,35.59
2023-05-05T20:49:37.542Z,35.57
2023-05-05T20:52:05.971Z,35.63
2023-05-05T20:54:34.387Z,35.69
2023-05-05T20:57:03.279Z,35.62
2023-05-05T20:59:32.331Z,35.63
2023-05-05T21:02:01.167Z,35.82
2023-05-05T21:04:29.546Z,35.92
2023-05-05T21:06:57.827Z,36.12
2023-05-05T21:09:26.123Z,36.26
2023-05-05T21:11:54.440Z,36.25
2023-05-05T21:14:23.425Z,36.62
2023-05-05T21:16:51.503Z,36.45
2023-05-05T21:19:19.713Z,36.64
2023-05-05T21:21:48.235Z,36.73
2023-05-05T21:24:16.511Z,36.72
2023-05-05T21:27:45.601Z,36.68
2023-05-05T21:31:33.984Z,36.86
2023-05-05T21:35:22.554Z,36.80
2023-05-05T21:37:59.419Z,36.80
2023-05-05T21:40:33.242Z,36.81
2023-05-05T21:43:01.228Z,36.75
2023-05-05T21:45:29.176Z,36.79
2023-05-05T21:47:57.174Z,36.93
2023-05-05T21:50:26.158Z,37.09
2023-05-05T21:52:55.126Z,37.44
2023-05-05T21:55:23.084Z,37.42
2023-05-05T21:57:51.212Z,37.71
2023-05-05T22:00:19.404Z,37.82
2023-05-05T22:02:47.422Z,38.21
2023-05-05T22:05:15.495Z,38.60
2023-05-05T22:07:51.489Z,38.83
2023-05-05T22:11:20.312Z,38.90
2023-05-05T22:13:52.549Z,39.29
2023-05-05T22:16:20.739Z,39.44
2023-05-05T22:18:49.757Z,39.80
2023-05-05T22:22:18.238Z,40.17
2023-05-05T22:24:46.236Z,40.19
2023-05-05T22:27:14.294Z,40.35
2023-05-05T22:29:42.666Z,40.28
2023-05-05T22:32:10.718Z,40.65
2023-05-05T22:34:38.642Z,40.86
2023-05-05T22:37:06.630Z,40.77
2023-05-05T22:39:35.016Z,40.75
2023-05-05T22:42:03.834Z,40.75
2023-05-05T22:44:31.836Z,40.98
2023-05-05T22:46:59.866Z,40.93
2023-05-05T22:49:28.846Z,41.27
2023-05-05T22:51:57.300Z,41.51
2023-05-05T22:54:25.412Z,41.87
2023-05-05T22:56:53.559Z,41.60
2023-05-05T22:59:21.833Z,41.78
2023-05-05T23:02:50.293Z,42.16
2023-05-05T23:05:23.835Z,42.41
2023-05-05T23:07:51.917Z,42.24
2023-05-05T23:11:20.588Z,42.37
2023-05-05T23:13:48.697Z,42.61
2023-05-05T23:16:16.707Z,42.66
2023-05-05T23:18:44.785Z,42.78
2023-05-05T23:21:12.856Z,42.88
2023-05-05T23:24:00.935Z,43.05
2023-05-05T23:26:29.068Z,43.21
2023-05-05T23:28:57.145Z,43.20
2023-05-05T23:31:25.238Z,43.35
2023-05-05T23:34:53.861Z,43.28
2023-05-05T23:38:02.407Z,43.40
2023-05-05T23:40:30.332Z,43.80
2023-05-05T23:42:59.477Z,43.63
2023-05-05T23:45:27.779Z,43.64
2023-05-05T23:47:55.733Z,43.60
2023-05-05T23:50:25.848Z,44.03
2023-05-05T23:53:35.049Z,44.04
2023-05-05T23:56:03.469Z,44.09
2023-05-05T23:58:31.521Z,44.26
